Time;durP1;ratioP1;P1;durP2;ratioP2;P2;SDS_P1;SDS_P2;PMS_P1;PMS_P2;Temp;Humidity;BMP_temperature;BMP_pressure;BME280_temperature;BME280_humidity;BME280_pressure;Samples;Min_cycle;Max_cycle;Signal;HPM_P1;HPM_P2
2023/12/10 00:02:23;;;;;;;33.78;4.00;;;;;;;;;;5041931;28;20084;-59
2023/12/10 00:04:49;;;;;;;22.95;3.35;;;;;;;;;;5042626;28;20033;-59
2023/12/10 00:07:15;;;;;;;29.17;4.20;;;;;;;;;;5042155;28;20052;-59
2023/12/10 00:09:41;;;;;;;27.42;4.57;;;;;;;;;;5042102;28;20102;-59
2023/12/10 00:12:07;;;;;;;14.98;3.50;;;;;;;;;;5041583;28;20064;-59
2023/12/10 00:14:33;;;;;;;26.90;3.55;;;;;;;;;;5041969;28;20063;-58
2023/12/10 00:16:59;;;;;;;31.98;4.70;;;;;;;;;;5042248;28;20041;-59
2023/12/10 00:19:26;;;;;;;27.58;4.05;;;;;;;;;;5041317;28;20064;-59
2023/12/10 00:21:53;;;;;;;34.78;4.50;;;;;;;;;;5040232;28;20051;-58
2023/12/10 00:24:19;;;;;;;33.40;3.58;;;;;;;;;;5041683;28;20047;-59
2023/12/10 00:26:45;;;;;;;27.20;4.63;;;;;;;;;;5041969;28;20037;-58
2023/12/10 00:29:11;;;;;;;30.38;3.60;;;;;;;;;;5041484;28;20037;-61
2023/12/10 00:31:37;;;;;;;28.48;3.38;;;;;;;;;;5040137;28;20124;-59
2023/12/10 00:34:03;;;;;;;26.75;5.30;;;;;;;;;;5040870;28;20068;-58
2023/12/10 00:36:29;;;;;;;27.25;5.20;;;;;;;;;;5041370;28;20076;-60
2023/12/10 00:38:55;;;;;;;23.25;3.15;;;;;;;;;;5041775;28;20863;-58
2023/12/10 00:41:22;;;;;;;25.35;3.40;;;;;;;;;;5032074;28;20049;-58
2023/12/10 00:43:48;;;;;;;37.03;3.38;;;;;;;;;;5041695;28;20041;-58
2023/12/10 00:46:14;;;;;;;27.83;3.30;;;;;;;;;;5041741;28;20029;-59
2023/12/10 00:48:40;;;;;;;19.20;3.40;;;;;;;;;;5041265;28;20248;-58
2023/12/10 00:51:06;;;;;;;25.45;2.92;;;;;;;;;;5042616;28;20072;-58
2023/12/10 00:53:32;;;;;;;20.23;2.17;;;;;;;;;;5041491;28;20057;-58
2023/12/10 00:55:58;;;;;;;20.35;3.17;;;;;;;;;;5041689;28;20573;-58
2023/12/10 00:58:24;;;;;;;26.05;2.65;;;;;;;;;;5041274;28;20047;-58
2023/12/10 01:00:51;;;;;;;21.77;2.50;;;;;;;;;;5042170;28;20094;-58
2023/12/10 01:03:18;;;;;;;16.20;2.63;;;;;;;;;;5040799;28;20056;-58
2023/12/10 01:05:44;;;;;;;18.98;2.58;;;;;;;;;;5041501;28;20045;-58
2023/12/10 01:08:11;;;;;;;20.90;2.22;;;;;;;;;;5041997;28;20045;-58
2023/12/10 01:10:37;;;;;;;16.02;3.15;;;;;;;;;;5042121;28;20057;-58
2023/12/10 01:13:03;;;;;;;26.58;2.05;;;;;;;;;;5041025;28;20052;-58
2023/12/10 01:15:32;;;;;;;16.55;3.90;;;;;;;;;;5041284;28;20445;-58
2023/12/10 01:18:01;;;;;;;23.67;2.85;;;;;;;;;;5034513;28;20044;-58
2023/12/10 01:20:30;;;;;;;20.20;2.92;;;;;;;;;;5041438;28;20045;-58
2023/12/10 01:22:57;;;;;;;27.55;3.15;;;;;;;;;;5041223;28;20523;-58
2023/12/10 01:25:26;;;;;;;15.90;2.22;;;;;;;;;;5041526;28;20041;-58
2023/12/10 01:27:55;;;;;;;21.25;3.55;;;;;;;;;;5041847;28;20048;-58
2023/12/10 01:30:24;;;;;;;21.20;3.83;;;;;;;;;;5040799;28;20045;-58
2023/12/10 01:32:53;;;;;;;22.83;2.78;;;;;;;;;;5040564;28;20122;-59
2023/12/10 01:35:19;;;;;;;20.35;2.90;;;;;;;;;;5041280;28;20044;-58
2023/12/10 01:37:45;;;;;;;21.02;3.78;;;;;;;;;;5039657;28;20048;-59
2023/12/10 01:40:12;;;;;;;24.52;3.40;;;;;;;;;;5042012;28;20045;-58
2023/12/10 01:42:38;;;;;;;25.23;3.15;;;;;;;;;;5042007;28;20080;-58
2023/12/10 01:45:05;;;;;;;24.33;3.30;;;;;;;;;;5041772;28;20086;-58
2023/12/10 01:47:33;;;;;;;25.40;2.88;;;;;;;;;;5039902;28;20049;-58
2023/12/10 01:50:00;;;;;;;33.35;3.22;;;;;;;;;;5041071;28;20084;-58
2023/12/10 01:52:26;;;;;;;19.42;2.80;;;;;;;;;;5041145;28;20465;-58
2023/12/10 01:54:52;;;;;;;18.15;3.00;;;;;;;;;;5041359;28;20041;-58
2023/12/10 01:57:18;;;;;;;19.83;3.65;;;;;;;;;;5041153;28;20045;-58
2023/12/10 01:59:44;;;;;;;21.88;3.03;;;;;;;;;;5041136;28;20080;-59
2023/12/10 02:04:39;;;;;;;27.10;3.00;;;;;;;;;;5043762;28;20041;-61
2023/12/10 02:07:05;;;;;;;18.33;2.80;;;;;;;;;;5040647;28;20489;-60
2023/12/10 02:09:31;;;;;;;18.13;2.53;;;;;;;;;;5045730;28;20132;-60
2023/12/10 02:11:57;;;;;;;30.02;4.97;;;;;;;;;;5066658;28;20089;-60
2023/12/10 02:14:23;;;;;;;20.70;3.00;;;;;;;;;;5072854;28;20511;-60
2023/12/10 02:16:49;;;;;;;32.08;2.95;;;;;;;;;;5077013;28;20127;-61
2023/12/10 02:19:15;;;;;;;24.65;2.92;;;;;;;;;;5076074;28;20589;-60
2023/12/10 02:21:42;;;;;;;35.50;4.75;;;;;;;;;;5047675;28;20041;-61
2023/12/10 02:24:10;;;;;;;26.30;3.53;;;;;;;;;;5065888;28;20556;-60
2023/12/10 02:26:37;;;;;;;22.00;3.03;;;;;;;;;;5078101;28;20037;-60
2023/12/10 02:29:04;;;;;;;24.70;3.28;;;;;;;;;;5080941;28;20048;-60
2023/12/10 02:31:30;;;;;;;26.65;3.03;;;;;;;;;;5075162;28;20448;-61
2023/12/10 02:33:56;;;;;;;24.45;3.55;;;;;;;;;;5079222;28;20546;-60
2023/12/10 02:36:22;;;;;;;26.02;3.42;;;;;;;;;;5067701;28;20060;-60
2023/12/10 02:38:49;;;;;;;24.05;2.75;;;;;;;;;;5059854;28;20159;-61
2023/12/10 02:41:16;;;;;;;29.23;4.07;;;;;;;;;;5062864;28;20112;-60
2023/12/10 02:43:42;;;;;;;27.30;3.92;;;;;;;;;;5063437;28;20118;-60
2023/12/10 02:46:08;;;;;;;30.75;4.03;;;;;;;;;;5079028;28;20089;-60
2023/12/10 02:48:34;;;;;;;30.60;3.47;;;;;;;;;;5068247;28;20049;-61
2023/12/10 02:51:00;;;;;;;30.02;3.35;;;;;;;;;;5073981;28;20123;-60
2023/12/10 02:53:26;;;;;;;29.27;3.38;;;;;;;;;;5067559;28;20043;-61
2023/12/10 02:55:52;;;;;;;29.73;3.45;;;;;;;;;;5070506;28;20047;-61
2023/12/10 02:58:18;;;;;;;14.00;2.47;;;;;;;;;;5063048;28;20060;-60
2023/12/10 03:00:44;;;;;;;29.27;3.05;;;;;;;;;;5062641;28;20043;-60
2023/12/10 03:03:10;;;;;;;25.48;2.45;;;;;;;;;;5056787;28;20052;-60
2023/12/10 03:05:36;;;;;;;21.33;3.83;;;;;;;;;;5053943;28;20052;-61
2023/12/10 03:08:02;;;;;;;24.02;3.00;;;;;;;;;;5052637;28;20032;-61
2023/12/10 03:10:28;;;;;;;29.33;3.53;;;;;;;;;;5057931;28;20036;-61
2023/12/10 03:12:55;;;;;;;25.23;3.47;;;;;;;;;;5054011;28;20355;-60
2023/12/10 03:15:21;;;;;;;32.47;4.43;;;;;;;;;;5081005;28;20542;-61
2023/12/10 03:17:47;;;;;;;24.40;3.13;;;;;;;;;;5075884;28;20045;-60
2023/12/10 03:20:13;;;;;;;21.40;2.60;;;;;;;;;;5077698;28;20031;-61
2023/12/10 03:22:39;;;;;;;18.27;2.45;;;;;;;;;;5062464;28;20139;-61
2023/12/10 03:25:05;;;;;;;26.67;2.90;;;;;;;;;;5062560;28;20490;-60
2023/12/10 03:27:31;;;;;;;26.88;2.22;;;;;;;;;;5068719;28;20044;-61
2023/12/10 03:29:57;;;;;;;24.67;2.95;;;;;;;;;;5078890;28;20036;-60
2023/12/10 03:32:24;;;;;;;16.38;2.28;;;;;;;;;;5061272;28;20071;-60
2023/12/10 03:34:50;;;;;;;17.95;2.08;;;;;;;;;;5071894;28;20539;-58
2023/12/10 03:37:16;;;;;;;23.05;2.65;;;;;;;;;;5077424;28;20055;-60
2023/12/10 03:39:42;;;;;;;19.95;3.15;;;;;;;;;;5064723;28;20068;-61
2023/12/10 03:42:08;;;;;;;17.08;2.53;;;;;;;;;;5051707;28;20528;-60
2023/12/10 03:44:34;;;;;;;15.63;2.55;;;;;;;;;;5081170;28;20405;-61
2023/12/10 03:47:03;;;;;;;19.95;2.13;;;;;;;;;;5073589;28;20867;-60
2023/12/10 03:49:29;;;;;;;21.10;2.15;;;;;;;;;;5076655;28;20137;-60
2023/12/10 03:51:58;;;;;;;14.23;2.22;;;;;;;;;;5063835;28;20467;-60
2023/12/10 03:54:24;;;;;;;12.40;1.70;;;;;;;;;;5072119;28;20055;-60
2023/12/10 03:56:50;;;;;;;12.55;2.00;;;;;;;;;;5058455;28;20033;-60
2023/12/10 03:59:16;;;;;;;9.45;1.70;;;;;;;;;;5064849;28;20447;-60
2023/12/10 04:01:43;;;;;;;15.07;1.70;;;;;;;;;;5078234;28;20303;-60
2023/12/10 04:04:09;;;;;;;14.27;1.95;;;;;;;;;;5069366;28;20053;-60
2023/12/10 04:06:39;;;;;;;15.65;1.40;;;;;;;;;;5074271;28;20040;-60
2023/12/10 04:09:06;;;;;;;12.05;1.40;;;;;;;;;;5061056;28;20109;-60
2023/12/10 04:11:32;;;;;;;13.57;1.60;;;;;;;;;;5068667;28;20289;-60
2023/12/10 04:13:58;;;;;;;11.18;1.63;;;;;;;;;;5054948;28;20474;-61
2023/12/10 04:16:27;;;;;;;15.77;2.13;;;;;;;;;;5062499;28;20469;-60
2023/12/10 04:18:53;;;;;;;12.30;1.70;;;;;;;;;;5051339;28;20096;-60
2023/12/10 04:21:20;;;;;;;11.48;1.55;;;;;;;;;;5054961;28;20106;-60
2023/12/10 04:23:46;;;;;;;17.50;1.88;;;;;;;;;;5046686;28;20865;-60
2023/12/10 04:26:12;;;;;;;11.23;1.38;;;;;;;;;;5045857;28;20314;-60
2023/12/10 04:28:41;;;;;;;6.32;1.42;;;;;;;;;;5042720;28;20040;-60
2023/12/10 04:31:07;;;;;;;11.65;1.90;;;;;;;;;;5056678;28;20060;-60
2023/12/10 04:33:33;;;;;;;21.13;2.15;;;;;;;;;;5065908;28;20040;-60
2023/12/10 04:35:59;;;;;;;12.32;2.58;;;;;;;;;;5078047;28;20046;-60
2023/12/10 04:38:26;;;;;;;12.80;1.85;;;;;;;;;;5070309;28;20063;-60
2023/12/10 04:40:52;;;;;;;12.07;1.60;;;;;;;;;;5059497;28;20041;-60
2023/12/10 04:43:18;;;;;;;18.48;1.73;;;;;;;;;;5048267;28;20055;-60
2023/12/10 04:45:45;;;;;;;22.10;2.88;;;;;;;;;;5043710;28;20482;-60
2023/12/10 04:48:12;;;;;;;13.68;1.75;;;;;;;;;;5067687;28;20040;-60
2023/12/10 04:50:39;;;;;;;14.43;2.70;;;;;;;;;;5054177;28;20040;-60
2023/12/10 04:53:05;;;;;;;14.43;2.30;;;;;;;;;;5076010;28;20055;-60
2023/12/10 04:55:31;;;;;;;13.90;1.98;;;;;;;;;;5070969;28;20492;-59
2023/12/10 04:57:57;;;;;;;13.73;2.30;;;;;;;;;;5070246;28;20055;-60
2023/12/10 05:00:23;;;;;;;12.30;1.50;;;;;;;;;;5063870;28;20047;-60
2023/12/10 05:02:49;;;;;;;7.57;1.67;;;;;;;;;;5067856;28;20139;-60
2023/12/10 05:05:16;;;;;;;14.90;1.77;;;;;;;;;;5054636;28;20103;-60
2023/12/10 05:07:43;;;;;;;12.70;2.00;;;;;;;;;;5064573;28;20409;-60
2023/12/10 05:10:09;;;;;;;16.85;2.08;;;;;;;;;;5049970;28;20033;-60
2023/12/10 05:12:35;;;;;;;11.68;1.50;;;;;;;;;;5045015;28;20041;-60
2023/12/10 05:15:01;;;;;;;14.60;2.53;;;;;;;;;;5049327;28;20037;-59
2023/12/10 05:17:27;;;;;;;11.48;1.55;;;;;;;;;;5046232;28;20051;-60
2023/12/10 05:19:53;;;;;;;20.65;2.55;;;;;;;;;;5042105;28;20118;-60
2023/12/10 05:22:20;;;;;;;10.50;1.23;;;;;;;;;;5049546;28;20168;-60
2023/12/10 05:24:46;;;;;;;19.42;2.50;;;;;;;;;;5048845;28;20554;-60
2023/12/10 05:27:13;;;;;;;14.45;1.48;;;;;;;;;;5030401;28;20578;-60
2023/12/10 05:29:39;;;;;;;17.20;2.10;;;;;;;;;;5047531;28;20045;-60
2023/12/10 05:32:05;;;;;;;12.48;2.10;;;;;;;;;;5044185;28;20537;-60
2023/12/10 05:34:31;;;;;;;10.63;1.35;;;;;;;;;;5046956;28;20055;-60
2023/12/10 05:36:57;;;;;;;9.13;1.98;;;;;;;;;;5046668;28;20037;-59
2023/12/10 05:39:23;;;;;;;11.98;1.30;;;;;;;;;;5060840;28;20048;-60
2023/12/10 05:41:49;;;;;;;10.90;1.40;;;;;;;;;;5049122;28;20489;-60
2023/12/10 05:44:16;;;;;;;9.57;1.10;;;;;;;;;;5050532;28;20040;-60
2023/12/10 05:46:42;;;;;;;12.80;1.35;;;;;;;;;;5058121;28;20037;-60
2023/12/10 05:49:08;;;;;;;9.45;1.27;;;;;;;;;;5062459;28;20042;-60
2023/12/10 05:51:34;;;;;;;10.77;1.52;;;;;;;;;;5051586;28;20060;-60
2023/12/10 05:54:00;;;;;;;7.57;1.15;;;;;;;;;;5061350;28;20107;-61
2023/12/10 05:56:26;;;;;;;18.27;1.83;;;;;;;;;;5051749;28;20041;-60
2023/12/10 05:58:52;;;;;;;12.40;1.33;;;;;;;;;;5054782;28;20074;-60
2023/12/10 06:01:18;;;;;;;12.70;1.85;;;;;;;;;;5047322;28;20568;-60
2023/12/10 06:03:44;;;;;;;13.40;2.72;;;;;;;;;;5046514;28;20138;-61
2023/12/10 06:06:10;;;;;;;17.08;3.58;;;;;;;;;;5061084;28;20441;-60
2023/12/10 06:08:36;;;;;;;16.65;1.88;;;;;;;;;;5079126;28;20465;-60
2023/12/10 06:11:02;;;;;;;9.27;1.80;;;;;;;;;;5079450;28;20109;-60
2023/12/10 06:13:28;;;;;;;15.48;2.00;;;;;;;;;;5074933;28;20131;-59
2023/12/10 06:15:56;;;;;;;18.55;1.98;;;;;;;;;;5071928;28;20115;-61
2023/12/10 06:18:22;;;;;;;18.17;2.00;;;;;;;;;;5070009;28;20055;-60
2023/12/10 06:20:48;;;;;;;16.60;2.20;;;;;;;;;;5046178;28;20044;-60
2023/12/10 06:23:14;;;;;;;20.77;2.00;;;;;;;;;;5063872;28;20131;-60
2023/12/10 06:25:40;;;;;;;12.85;1.63;;;;;;;;;;5055740;28;20128;-60
2023/12/10 06:28:06;;;;;;;23.98;3.05;;;;;;;;;;5058854;28;20047;-60
2023/12/10 06:30:32;;;;;;;25.88;3.80;;;;;;;;;;5057629;28;20032;-60
2023/12/10 06:32:58;;;;;;;20.42;3.05;;;;;;;;;;5062477;28;20528;-60
2023/12/10 06:35:24;;;;;;;24.50;3.25;;;;;;;;;;5081242;28;20130;-61
2023/12/10 06:37:50;;;;;;;18.50;2.60;;;;;;;;;;5074340;28;20048;-60
2023/12/10 06:40:17;;;;;;;16.20;2.65;;;;;;;;;;5069221;28;20102;-61
2023/12/10 06:42:43;;;;;;;20.40;3.58;;;;;;;;;;5048405;28;20087;-61
2023/12/10 06:45:10;;;;;;;14.70;2.67;;;;;;;;;;5047346;28;20033;-61
2023/12/10 06:47:36;;;;;;;20.27;2.72;;;;;;;;;;5061711;28;20043;-61
2023/12/10 06:50:03;;;;;;;22.95;2.30;;;;;;;;;;5077823;28;20732;-61
2023/12/10 06:52:29;;;;;;;17.27;2.13;;;;;;;;;;5079323;28;20405;-61
2023/12/10 06:54:55;;;;;;;23.98;3.42;;;;;;;;;;5070392;28;20041;-61
2023/12/10 06:57:21;;;;;;;27.88;3.97;;;;;;;;;;5054753;28;20062;-61
2023/12/10 06:59:47;;;;;;;21.60;3.15;;;;;;;;;;5064774;28;20040;-61
2023/12/10 07:02:13;;;;;;;27.15;2.75;;;;;;;;;;5063479;28;20067;-61
2023/12/10 07:04:39;;;;;;;22.77;3.00;;;;;;;;;;5059307;28;20108;-61
2023/12/10 07:07:09;;;;;;;18.33;2.92;;;;;;;;;;5056916;28;20048;-61
2023/12/10 07:09:35;;;;;;;24.50;3.08;;;;;;;;;;5063419;28;20925;-60
2023/12/10 07:12:01;;;;;;;23.40;3.58;;;;;;;;;;5055305;28;20495;-60
2023/12/10 07:14:28;;;;;;;23.73;3.38;;;;;;;;;;5047932;28;20115;-60
2023/12/10 07:16:54;;;;;;;21.73;3.60;;;;;;;;;;5042812;28;20052;-60
2023/12/10 07:19:20;;;;;;;18.52;3.05;;;;;;;;;;5078144;28;20048;-60
2023/12/10 07:21:48;;;;;;;24.05;3.10;;;;;;;;;;5074489;28;20044;-61
2023/12/10 07:24:14;;;;;;;19.83;2.92;;;;;;;;;;5071007;28;20056;-61
2023/12/10 07:26:40;;;;;;;27.45;2.70;;;;;;;;;;5068077;28;20048;-61
2023/12/10 07:29:07;;;;;;;19.23;2.50;;;;;;;;;;5067488;28;20045;-60
2023/12/10 07:31:33;;;;;;;13.55;1.55;;;;;;;;;;5065746;28;20478;-57
2023/12/10 07:33:59;;;;;;;13.43;1.70;;;;;;;;;;5064053;28;20101;-60
2023/12/10 07:36:25;;;;;;;16.33;2.95;;;;;;;;;;5070077;28;20476;-60
2023/12/10 07:38:52;;;;;;;14.52;1.95;;;;;;;;;;5074182;28;20056;-60
2023/12/10 07:41:18;;;;;;;19.38;2.20;;;;;;;;;;5059023;28;20047;-60
2023/12/10 07:43:44;;;;;;;15.00;1.98;;;;;;;;;;5048650;28;20120;-61
2023/12/10 07:46:10;;;;;;;17.73;2.13;;;;;;;;;;5043240;28;20124;-61
2023/12/10 07:48:36;;;;;;;11.07;1.75;;;;;;;;;;5061933;28;20111;-61
2023/12/10 07:51:02;;;;;;;16.40;2.05;;;;;;;;;;5073250;28;20059;-61
2023/12/10 07:53:28;;;;;;;20.88;3.08;;;;;;;;;;5067883;28;20041;-61
2023/12/10 07:55:54;;;;;;;13.30;2.45;;;;;;;;;;5073622;28;20634;-61
2023/12/10 07:58:22;;;;;;;13.20;2.13;;;;;;;;;;5065600;28;20071;-61
2023/12/10 08:00:48;;;;;;;27.33;2.80;;;;;;;;;;5060209;28;20456;-62
2023/12/10 08:03:14;;;;;;;16.63;2.70;;;;;;;;;;5059943;28;20080;-61
2023/12/10 08:05:40;;;;;;;23.58;2.55;;;;;;;;;;5065729;28;20107;-62
2023/12/10 08:08:07;;;;;;;27.73;3.15;;;;;;;;;;5056286;28;20050;-62
2023/12/10 08:10:33;;;;;;;19.10;2.58;;;;;;;;;;5056976;28;20048;-63
2023/12/10 08:12:59;;;;;;;17.73;1.77;;;;;;;;;;5059253;28;20036;-63
2023/12/10 08:15:26;;;;;;;15.63;1.60;;;;;;;;;;5063835;28;20926;-62
2023/12/10 08:17:52;;;;;;;13.38;1.80;;;;;;;;;;5055356;28;20052;-64
2023/12/10 08:20:18;;;;;;;14.68;2.05;;;;;;;;;;5070499;28;20127;-61
2023/12/10 08:22:47;;;;;;;18.20;2.15;;;;;;;;;;5058786;28;20076;-64
2023/12/10 08:25:14;;;;;;;14.93;1.90;;;;;;;;;;5056854;28;20075;-62
2023/12/10 08:27:40;;;;;;;15.70;1.60;;;;;;;;;;5062305;28;20040;-63
2023/12/10 08:30:07;;;;;;;18.83;1.75;;;;;;;;;;5058616;28;20111;-62
2023/12/10 08:32:33;;;;;;;16.83;1.70;;;;;;;;;;5059377;28;20498;-63
2023/12/10 08:34:59;;;;;;;9.48;1.30;;;;;;;;;;5052275;28;20445;-62
2023/12/10 08:37:25;;;;;;;18.63;2.50;;;;;;;;;;5049606;28;20111;-63
2023/12/10 08:39:52;;;;;;;25.05;2.97;;;;;;;;;;5054783;28;20044;-64
2023/12/10 08:42:18;;;;;;;19.08;2.85;;;;;;;;;;5055585;28;20079;-62
2023/12/10 08:44:44;;;;;;;24.70;2.80;;;;;;;;;;5069919;28;20044;-62
2023/12/10 08:47:10;;;;;;;14.63;2.33;;;;;;;;;;5066670;28;20093;-63
2023/12/10 08:49:37;;;;;;;13.32;2.50;;;;;;;;;;5050540;28;20044;-62
2023/12/10 08:52:03;;;;;;;16.60;2.05;;;;;;;;;;5037888;28;20036;-62
2023/12/10 08:54:29;;;;;;;21.00;1.98;;;;;;;;;;5058651;28;20101;-62
2023/12/10 08:56:55;;;;;;;13.75;1.73;;;;;;;;;;5068171;28;20064;-62
2023/12/10 08:59:21;;;;;;;17.48;2.35;;;;;;;;;;5066113;28;20639;-61
2023/12/10 09:01:47;;;;;;;17.95;2.30;;;;;;;;;;5062040;28;20051;-61
2023/12/10 09:04:13;;;;;;;16.17;2.67;;;;;;;;;;5053462;28;20064;-62
2023/12/10 09:06:39;;;;;;;15.95;1.85;;;;;;;;;;5050383;28;20399;-61
2023/12/10 09:09:05;;;;;;;20.65;2.92;;;;;;;;;;5054691;28;20401;-62
2023/12/10 09:11:31;;;;;;;22.67;2.75;;;;;;;;;;5054244;28;20862;-61
2023/12/10 09:13:57;;;;;;;20.75;2.58;;;;;;;;;;5054548;28;20059;-61
2023/12/10 09:16:23;;;;;;;23.88;4.03;;;;;;;;;;5050448;28;20084;-61
2023/12/10 09:18:49;;;;;;;23.73;2.33;;;;;;;;;;5050835;28;20087;-61
2023/12/10 09:21:15;;;;;;;29.75;3.67;;;;;;;;;;5042786;28;20510;-61
2023/12/10 09:23:43;;;;;;;23.60;2.38;;;;;;;;;;5041788;28;20179;-61
2023/12/10 09:26:10;;;;;;;18.75;2.40;;;;;;;;;;5044086;28;20711;-61
2023/12/10 09:28:36;;;;;;;20.05;3.28;;;;;;;;;;5062766;28;20052;-61
2023/12/10 09:31:02;;;;;;;19.95;2.80;;;;;;;;;;5065587;28;20052;-61
2023/12/10 09:33:28;;;;;;;19.58;2.60;;;;;;;;;;5056445;28;20053;-61
2023/12/10 09:35:54;;;;;;;25.95;2.83;;;;;;;;;;5059712;28;20049;-62
2023/12/10 09:38:20;;;;;;;32.70;3.35;;;;;;;;;;5053481;28;20060;-62
2023/12/10 09:40:46;;;;;;;19.33;3.40;;;;;;;;;;5057196;28;20037;-61
2023/12/10 09:43:12;;;;;;;27.90;4.32;;;;;;;;;;5055053;28;20055;-61
2023/12/10 09:45:38;;;;;;;30.77;3.92;;;;;;;;;;5070974;28;20051;-61
2023/12/10 09:48:05;;;;;;;34.17;3.72;;;;;;;;;;5057319;28;20067;-61
2023/12/10 09:50:32;;;;;;;32.08;3.92;;;;;;;;;;5075082;28;20046;-61
2023/12/10 09:52:58;;;;;;;29.13;5.18;;;;;;;;;;5072843;28;20074;-61
2023/12/10 09:55:24;;;;;;;28.38;3.53;;;;;;;;;;5068257;28;20504;-61
2023/12/10 09:57:51;;;;;;;28.80;4.13;;;;;;;;;;5066743;28;20047;-61
2023/12/10 10:00:17;;;;;;;38.17;3.72;;;;;;;;;;5063172;28;20052;-60
2023/12/10 10:02:43;;;;;;;35.70;3.70;;;;;;;;;;5066995;28;20115;-60
2023/12/10 10:05:09;;;;;;;36.30;4.90;;;;;;;;;;5055134;28;20802;-59
2023/12/10 10:07:35;;;;;;;31.17;4.40;;;;;;;;;;5074557;28;20048;-61
2023/12/10 10:10:01;;;;;;;29.65;3.88;;;;;;;;;;5058151;28;20041;-60
2023/12/10 10:12:29;;;;;;;33.15;3.55;;;;;;;;;;5071649;28;20036;-61
2023/12/10 10:14:55;;;;;;;33.03;4.20;;;;;;;;;;5037309;28;20119;-61
2023/12/10 10:17:36;;;;;;;39.88;4.60;;;;;;;;;;5058780;28;20051;-61
2023/12/10 10:20:04;;;;;;;22.77;4.72;;;;;;;;;;5065208;28;20448;-61
2023/12/10 10:22:30;;;;;;;41.22;5.80;;;;;;;;;;5053293;28;20109;-61
2023/12/10 10:24:57;;;;;;;28.50;4.30;;;;;;;;;;5035202;28;20044;-61
2023/12/10 10:27:23;;;;;;;26.40;3.67;;;;;;;;;;5051577;28;20037;-61
2023/12/10 10:29:53;;;;;;;31.75;4.22;;;;;;;;;;5065688;28;20139;-61
2023/12/10 10:32:20;;;;;;;25.40;3.65;;;;;;;;;;5055623;28;20052;-61
2023/12/10 10:34:47;;;;;;;32.42;3.97;;;;;;;;;;5046320;28;20049;-61
2023/12/10 10:37:15;;;;;;;31.67;4.35;;;;;;;;;;5060253;28;20051;-61
2023/12/10 10:39:41;;;;;;;26.17;4.07;;;;;;;;;;5055136;28;20080;-61
2023/12/10 10:42:09;;;;;;;30.13;3.72;;;;;;;;;;5047086;28;20155;-61
2023/12/10 10:44:38;;;;;;;27.20;3.77;;;;;;;;;;5044817;28;20041;-61
2023/12/10 10:47:07;;;;;;;23.92;3.40;;;;;;;;;;5060603;28;20324;-61
2023/12/10 10:49:57;;;;;;;24.48;4.07;;;;;;;;;;5064304;28;20516;-61
2023/12/10 10:52:27;;;;;;;29.00;5.25;;;;;;;;;;5053987;28;20185;-61
2023/12/10 10:54:55;;;;;;;25.17;3.53;;;;;;;;;;5064216;28;20578;-61
2023/12/10 10:57:48;;;;;;;24.33;3.53;;;;;;;;;;5067925;28;20588;-61
2023/12/10 11:00:20;;;;;;;38.13;4.25;;;;;;;;;;5055658;28;20513;-61
2023/12/10 11:02:54;;;;;;;27.27;3.60;;;;;;;;;;5062063;28;20227;-61
2023/12/10 11:05:39;;;;;;;23.98;3.90;;;;;;;;;;5064483;28;20045;-61
2023/12/10 11:08:05;;;;;;;28.65;3.97;;;;;;;;;;5069976;28;20558;-63
2023/12/10 11:10:32;;;;;;;34.40;3.88;;;;;;;;;;5059026;28;20052;-62
2023/12/10 11:13:00;;;;;;;26.35;3.60;;;;;;;;;;5047143;28;20033;-61
2023/12/10 11:15:27;;;;;;;26.63;3.97;;;;;;;;;;5054005;28;20131;-61
2023/12/10 11:17:53;;;;;;;23.75;3.22;;;;;;;;;;5050276;28;20044;-62
2023/12/10 11:20:33;;;;;;;25.30;3.08;;;;;;;;;;5052684;28;20051;-62
2023/12/10 11:22:59;;;;;;;26.67;3.22;;;;;;;;;;5050432;28;20044;-62
2023/12/10 11:25:28;;;;;;;38.00;4.07;;;;;;;;;;5047823;28;20049;-62
2023/12/10 11:27:54;;;;;;;32.70;3.95;;;;;;;;;;5057638;28;20043;-63
2023/12/10 11:30:20;;;;;;;32.15;4.10;;;;;;;;;;5057636;28;20040;-62
2023/12/10 11:32:46;;;;;;;27.42;3.17;;;;;;;;;;5048110;28;20197;-63
2023/12/10 11:35:14;;;;;;;30.77;3.65;;;;;;;;;;5055383;28;20086;-62
2023/12/10 11:37:41;;;;;;;22.20;3.33;;;;;;;;;;5061893;28;20051;-62
2023/12/10 11:40:08;;;;;;;30.08;3.13;;;;;;;;;;5050356;28;20083;-62
2023/12/10 11:42:35;;;;;;;25.08;2.67;;;;;;;;;;5046873;28;20076;-63
2023/12/10 11:45:01;;;;;;;29.15;3.10;;;;;;;;;;5050335;28;20040;-63
2023/12/10 11:47:28;;;;;;;29.42;3.05;;;;;;;;;;5065767;28;20040;-63
2023/12/10 11:49:57;;;;;;;23.58;3.13;;;;;;;;;;5054837;28;20045;-63
2023/12/10 11:52:24;;;;;;;27.73;2.65;;;;;;;;;;5052372;28;20048;-63
2023/12/10 11:54:50;;;;;;;26.60;3.67;;;;;;;;;;5053362;28;20493;-63
2023/12/10 11:57:16;;;;;;;27.35;3.42;;;;;;;;;;5054781;28;20051;-63
2023/12/10 11:59:48;;;;;;;19.55;2.92;;;;;;;;;;5064972;28;20433;-62
2023/12/10 12:02:15;;;;;;;34.40;5.00;;;;;;;;;;5052749;28;20470;-63
2023/12/10 12:04:41;;;;;;;17.10;2.47;;;;;;;;;;5071116;28;20071;-62
2023/12/10 12:07:22;;;;;;;16.05;2.58;;;;;;;;;;5055403;28;20044;-63
2023/12/10 12:09:48;;;;;;;21.23;3.20;;;;;;;;;;5061431;28;20101;-62
2023/12/10 12:12:14;;;;;;;26.13;3.17;;;;;;;;;;5059877;28;20143;-63
2023/12/10 12:14:40;;;;;;;22.77;3.15;;;;;;;;;;5069877;28;20130;-62
2023/12/10 12:17:06;;;;;;;26.60;3.45;;;;;;;;;;5071756;28;20167;-63
2023/12/10 12:19:32;;;;;;;23.67;3.05;;;;;;;;;;5072262;28;20055;-62
2023/12/10 12:21:59;;;;;;;30.17;3.85;;;;;;;;;;5047664;28;20174;-62
2023/12/10 12:24:25;;;;;;;22.88;3.83;;;;;;;;;;5066164;28;20051;-63
2023/12/10 12:26:51;;;;;;;26.38;3.50;;;;;;;;;;5064708;28;20416;-62
2023/12/10 12:29:18;;;;;;;22.30;3.30;;;;;;;;;;5061324;28;20655;-63
2023/12/10 12:31:44;;;;;;;29.10;3.15;;;;;;;;;;5055399;28;20647;-63
2023/12/10 12:34:10;;;;;;;21.58;3.22;;;;;;;;;;5057899;28;20075;-63
2023/12/10 12:36:36;;;;;;;21.02;3.67;;;;;;;;;;5063477;28;20052;-62
2023/12/10 12:39:03;;;;;;;23.17;2.67;;;;;;;;;;5061335;28;20485;-62
2023/12/10 12:41:29;;;;;;;23.42;3.33;;;;;;;;;;5048433;28;20053;-63
2023/12/10 12:43:56;;;;;;;11.32;2.60;;;;;;;;;;5066163;28;20051;-62
2023/12/10 12:46:22;;;;;;;23.98;3.15;;;;;;;;;;5065074;28;20047;-62
2023/12/10 12:48:49;;;;;;;16.90;2.85;;;;;;;;;;5070075;28;20734;-62
2023/12/10 12:51:15;;;;;;;23.35;3.10;;;;;;;;;;5063970;28;20052;-63
2023/12/10 12:53:41;;;;;;;14.70;2.40;;;;;;;;;;5066192;28;20577;-62
2023/12/10 12:56:08;;;;;;;23.35;2.60;;;;;;;;;;5062446;28;20080;-63
2023/12/10 12:58:34;;;;;;;21.60;3.55;;;;;;;;;;5062059;28;20048;-64
2023/12/10 13:01:00;;;;;;;15.52;2.08;;;;;;;;;;5055388;28;20128;-62
2023/12/10 13:03:26;;;;;;;25.40;2.65;;;;;;;;;;5056301;28;20056;-63
2023/12/10 13:05:52;;;;;;;15.45;2.13;;;;;;;;;;5065928;28;20572;-63
2023/12/10 13:08:18;;;;;;;23.60;3.25;;;;;;;;;;5071520;28;20053;-63
2023/12/10 13:10:44;;;;;;;18.25;3.00;;;;;;;;;;5063801;28;20135;-63
2023/12/10 13:13:10;;;;;;;20.92;2.75;;;;;;;;;;5058015;28;20127;-64
2023/12/10 13:15:36;;;;;;;24.65;3.17;;;;;;;;;;5056034;28;20131;-63
2023/12/10 13:18:02;;;;;;;21.05;3.42;;;;;;;;;;5053018;28;20159;-63
2023/12/10 13:20:28;;;;;;;21.50;2.90;;;;;;;;;;5045893;28;20610;-63
2023/12/10 13:22:54;;;;;;;28.23;3.15;;;;;;;;;;5046892;28;20048;-63
2023/12/10 13:25:20;;;;;;;27.90;3.15;;;;;;;;;;5046332;28;20049;-62
2023/12/10 13:27:47;;;;;;;23.50;2.80;;;;;;;;;;5055042;28;20036;-63
2023/12/10 13:30:13;;;;;;;21.15;3.00;;;;;;;;;;5055194;28;20110;-63
2023/12/10 13:32:39;;;;;;;24.15;2.90;;;;;;;;;;5057308;28;20509;-63
2023/12/10 13:35:07;;;;;;;20.05;2.65;;;;;;;;;;5055932;28;20105;-63
2023/12/10 13:37:33;;;;;;;27.42;2.22;;;;;;;;;;5058480;28;20059;-63
2023/12/10 13:39:59;;;;;;;22.40;3.28;;;;;;;;;;5071229;28;20087;-63
2023/12/10 13:42:25;;;;;;;22.27;2.90;;;;;;;;;;5046330;28;20552;-64
2023/12/10 13:44:52;;;;;;;17.25;2.75;;;;;;;;;;5058969;28;20382;-63
2023/12/10 13:47:18;;;;;;;26.02;2.90;;;;;;;;;;5068844;28;20048;-62
2023/12/10 13:49:44;;;;;;;18.75;2.33;;;;;;;;;;5059686;28;20167;-63
2023/12/10 13:52:10;;;;;;;21.42;3.10;;;;;;;;;;5034738;28;20527;-63
2023/12/10 13:54:36;;;;;;;19.52;2.25;;;;;;;;;;5062806;28;20054;-63
2023/12/10 13:57:02;;;;;;;19.08;3.25;;;;;;;;;;5071291;28;20120;-63
2023/12/10 13:59:29;;;;;;;20.50;2.83;;;;;;;;;;5057825;28;20051;-63
2023/12/10 14:01:55;;;;;;;19.38;2.08;;;;;;;;;;5059070;28;20495;-62
2023/12/10 14:04:22;;;;;;;19.58;2.17;;;;;;;;;;5072802;28;20513;-63
2023/12/10 14:06:48;;;;;;;23.73;3.72;;;;;;;;;;5053391;28;20085;-62
2023/12/10 14:09:14;;;;;;;19.73;2.35;;;;;;;;;;5061927;28;20040;-62
2023/12/10 14:11:40;;;;;;;22.55;2.85;;;;;;;;;;5059767;28;20055;-62
2023/12/10 14:14:06;;;;;;;20.05;2.90;;;;;;;;;;5042391;28;20048;-62
2023/12/10 14:16:33;;;;;;;16.60;2.38;;;;;;;;;;5061090;28;20181;-62
2023/12/10 14:19:00;;;;;;;19.63;2.78;;;;;;;;;;5055890;28;20051;-62
2023/12/10 14:21:27;;;;;;;17.67;3.58;;;;;;;;;;5050665;28;20570;-62
2023/12/10 14:23:53;;;;;;;14.60;2.20;;;;;;;;;;5053783;28;20304;-63
2023/12/10 14:26:19;;;;;;;22.77;3.00;;;;;;;;;;5067333;28;20504;-63
2023/12/10 14:28:45;;;;;;;15.45;2.40;;;;;;;;;;5057558;28;20051;-62
2023/12/10 14:31:11;;;;;;;17.55;1.90;;;;;;;;;;5061831;28;20044;-63